sensor_id;sensor_type;location;lat;lon;timestamp;P1;durP1;ratioP1;P2;durP2;ratioP2
76752;SDS011;65687;51.308;16.916;2022-12-24T00:03:27;21.90;;;14.80;;
76752;SDS011;65687;51.308;16.916;2022-12-24T00:08:29;20.40;;;14.40;;
76752;SDS011;65687;51.308;16.916;2022-12-24T00:13:31;20.30;;;15.10;;
76752;SDS011;65687;51.308;16.916;2022-12-24T00:18:33;20.70;;;15.20;;
76752;SDS011;65687;51.308;16.916;2022-12-24T00:23:35;22.90;;;15.40;;
76752;SDS011;65687;51.308;16.916;2022-12-24T00:28:37;21.30;;;14.50;;
76752;SDS011;65687;51.308;16.916;2022-12-24T00:33:38;19.40;;;13.60;;
76752;SDS011;65687;51.308;16.916;2022-12-24T00:38:40;26.50;;;13.70;;
76752;SDS011;65687;51.308;16.916;2022-12-24T00:43:42;21.20;;;13.80;;
76752;SDS011;65687;51.308;16.916;2022-12-24T00:48:44;17.40;;;13.10;;
76752;SDS011;65687;51.308;16.916;2022-12-24T00:53:46;20.10;;;13.50;;
76752;SDS011;65687;51.308;16.916;2022-12-24T00:58:48;24.40;;;14.30;;
76752;SDS011;65687;51.308;16.916;2022-12-24T01:03:50;22.30;;;13.10;;
76752;SDS011;65687;51.308;16.916;2022-12-24T01:08:53;18.80;;;13.20;;
76752;SDS011;65687;51.308;16.916;2022-12-24T01:13:54;19.50;;;12.10;;
76752;SDS011;65687;51.308;16.916;2022-12-24T01:18:56;19.20;;;12.00;;
76752;SDS011;65687;51.308;16.916;2022-12-24T01:23:58;18.20;;;12.00;;
76752;SDS011;65687;51.308;16.916;2022-12-24T01:29:00;15.80;;;11.00;;
76752;SDS011;65687;51.308;16.916;2022-12-24T01:34:02;15.70;;;12.00;;
76752;SDS011;65687;51.308;16.916;2022-12-24T01:39:04;15.10;;;11.40;;
76752;SDS011;65687;51.308;16.916;2022-12-24T01:44:25;14.90;;;11.30;;
76752;SDS011;65687;51.308;16.916;2022-12-24T01:49:27;18.50;;;11.60;;
76752;SDS011;65687;51.308;16.916;2022-12-24T01:54:34;15.70;;;10.00;;
76752;SDS011;65687;51.308;16.916;2022-12-24T01:59:41;14.80;;;11.10;;
76752;SDS011;65687;51.308;16.916;2022-12-24T02:10:02;18.90;;;12.20;;
76752;SDS011;65687;51.308;16.916;2022-12-24T02:15:07;16.20;;;10.80;;
76752;SDS011;65687;51.308;16.916;2022-12-24T02:25:52;14.60;;;9.50;;
76752;SDS011;65687;51.308;16.916;2022-12-24T02:31:14;16.00;;;10.60;;
76752;SDS011;65687;51.308;16.916;2022-12-24T02:41:32;15.00;;;10.50;;
76752;SDS011;65687;51.308;16.916;2022-12-24T02:46:55;16.50;;;10.70;;
76752;SDS011;65687;51.308;16.916;2022-12-24T02:52:00;13.40;;;8.40;;
76752;SDS011;65687;51.308;16.916;2022-12-24T02:57:07;12.10;;;7.50;;
76752;SDS011;65687;51.308;16.916;2022-12-24T03:08:00;12.10;;;9.20;;
76752;SDS011;65687;51.308;16.916;2022-12-24T03:18:11;14.50;;;8.40;;
76752;SDS011;65687;51.308;16.916;2022-12-24T03:23:15;11.60;;;7.70;;
76752;SDS011;65687;51.308;16.916;2022-12-24T03:28:18;10.90;;;7.90;;
76752;SDS011;65687;51.308;16.916;2022-12-24T03:33:24;11.10;;;8.10;;
76752;SDS011;65687;51.308;16.916;2022-12-24T03:38:26;10.50;;;7.80;;
76752;SDS011;65687;51.308;16.916;2022-12-24T03:43:28;10.20;;;7.70;;
76752;SDS011;65687;51.308;16.916;2022-12-24T03:48:30;13.50;;;9.40;;
76752;SDS011;65687;51.308;16.916;2022-12-24T03:53:34;14.10;;;8.20;;
76752;SDS011;65687;51.308;16.916;2022-12-24T03:58:36;13.00;;;9.80;;
76752;SDS011;65687;51.308;16.916;2022-12-24T04:03:38;15.40;;;10.90;;
76752;SDS011;65687;51.308;16.916;2022-12-24T04:08:40;10.40;;;7.80;;
76752;SDS011;65687;51.308;16.916;2022-12-24T04:13:42;12.40;;;8.30;;
76752;SDS011;65687;51.308;16.916;2022-12-24T04:18:44;11.40;;;7.70;;
76752;SDS011;65687;51.308;16.916;2022-12-24T04:23:46;13.30;;;8.20;;
76752;SDS011;65687;51.308;16.916;2022-12-24T04:28:48;10.80;;;8.40;;
76752;SDS011;65687;51.308;16.916;2022-12-24T04:33:50;9.80;;;6.00;;
76752;SDS011;65687;51.308;16.916;2022-12-24T04:38:53;8.30;;;5.50;;
76752;SDS011;65687;51.308;16.916;2022-12-24T04:43:55;9.40;;;6.10;;
76752;SDS011;65687;51.308;16.916;2022-12-24T04:48:57;8.80;;;5.50;;
76752;SDS011;65687;51.308;16.916;2022-12-24T04:53:59;5.90;;;4.50;;
76752;SDS011;65687;51.308;16.916;2022-12-24T04:59:01;5.90;;;4.10;;
76752;SDS011;65687;51.308;16.916;2022-12-24T05:04:03;5.50;;;2.80;;
76752;SDS011;65687;51.308;16.916;2022-12-24T05:09:07;6.70;;;3.90;;
76752;SDS011;65687;51.308;16.916;2022-12-24T05:14:09;5.10;;;3.60;;
76752;SDS011;65687;51.308;16.916;2022-12-24T05:19:11;4.70;;;3.00;;
76752;SDS011;65687;51.308;16.916;2022-12-24T05:24:12;3.90;;;2.80;;
76752;SDS011;65687;51.308;16.916;2022-12-24T05:29:33;4.60;;;3.40;;
76752;SDS011;65687;51.308;16.916;2022-12-24T05:34:34;4.90;;;3.10;;
76752;SDS011;65687;51.308;16.916;2022-12-24T05:39:36;5.40;;;3.50;;
76752;SDS011;65687;51.308;16.916;2022-12-24T05:44:38;5.80;;;2.90;;
76752;SDS011;65687;51.308;16.916;2022-12-24T05:49:40;4.20;;;3.10;;
76752;SDS011;65687;51.308;16.916;2022-12-24T05:54:42;4.60;;;3.50;;
76752;SDS011;65687;51.308;16.916;2022-12-24T05:59:43;4.00;;;2.70;;
76752;SDS011;65687;51.308;16.916;2022-12-24T06:04:45;3.60;;;2.60;;
76752;SDS011;65687;51.308;16.916;2022-12-24T06:09:47;4.50;;;3.30;;
76752;SDS011;65687;51.308;16.916;2022-12-24T06:14:49;3.50;;;2.60;;
76752;SDS011;65687;51.308;16.916;2022-12-24T06:19:51;3.10;;;2.60;;
76752;SDS011;65687;51.308;16.916;2022-12-24T06:24:53;4.70;;;3.10;;
76752;SDS011;65687;51.308;16.916;2022-12-24T06:29:55;4.00;;;3.10;;
76752;SDS011;65687;51.308;16.916;2022-12-24T06:34:56;4.80;;;4.00;;
76752;SDS011;65687;51.308;16.916;2022-12-24T06:39:58;5.00;;;3.80;;
76752;SDS011;65687;51.308;16.916;2022-12-24T06:45:00;5.80;;;4.70;;
76752;SDS011;65687;51.308;16.916;2022-12-24T06:50:02;7.10;;;5.00;;
76752;SDS011;65687;51.308;16.916;2022-12-24T06:55:04;6.30;;;4.70;;
76752;SDS011;65687;51.308;16.916;2022-12-24T07:00:07;7.50;;;6.10;;
76752;SDS011;65687;51.308;16.916;2022-12-24T07:05:10;5.70;;;3.90;;
76752;SDS011;65687;51.308;16.916;2022-12-24T07:10:14;7.50;;;5.90;;
76752;SDS011;65687;51.308;16.916;2022-12-24T07:15:18;8.50;;;5.90;;
76752;SDS011;65687;51.308;16.916;2022-12-24T07:20:20;9.20;;;6.40;;
76752;SDS011;65687;51.308;16.916;2022-12-24T07:25:22;11.30;;;6.70;;
76752;SDS011;65687;51.308;16.916;2022-12-24T07:30:24;9.10;;;5.90;;
76752;SDS011;65687;51.308;16.916;2022-12-24T07:35:26;6.90;;;4.80;;
76752;SDS011;65687;51.308;16.916;2022-12-24T07:40:27;7.60;;;5.40;;
76752;SDS011;65687;51.308;16.916;2022-12-24T07:45:29;7.20;;;5.00;;
76752;SDS011;65687;51.308;16.916;2022-12-24T07:50:31;6.90;;;4.50;;
76752;SDS011;65687;51.308;16.916;2022-12-24T07:55:34;8.80;;;6.10;;
76752;SDS011;65687;51.308;16.916;2022-12-24T08:00:36;9.00;;;6.00;;
76752;SDS011;65687;51.308;16.916;2022-12-24T08:05:38;7.20;;;6.00;;
76752;SDS011;65687;51.308;16.916;2022-12-24T08:10:40;8.10;;;5.40;;
76752;SDS011;65687;51.308;16.916;2022-12-24T08:15:45;8.10;;;5.80;;
76752;SDS011;65687;51.308;16.916;2022-12-24T08:20:47;7.20;;;5.20;;
76752;SDS011;65687;51.308;16.916;2022-12-24T08:25:49;8.40;;;5.80;;
76752;SDS011;65687;51.308;16.916;2022-12-24T08:30:51;8.30;;;6.00;;
76752;SDS011;65687;51.308;16.916;2022-12-24T08:35:54;8.70;;;6.10;;
76752;SDS011;65687;51.308;16.916;2022-12-24T08:40:56;9.00;;;6.50;;
76752;SDS011;65687;51.308;16.916;2022-12-24T08:46:04;9.10;;;6.50;;
76752;SDS011;65687;51.308;16.916;2022-12-24T08:51:07;10.00;;;6.50;;
76752;SDS011;65687;51.308;16.916;2022-12-24T08:56:11;9.00;;;5.90;;
76752;SDS011;65687;51.308;16.916;2022-12-24T09:01:17;7.30;;;5.30;;
76752;SDS011;65687;51.308;16.916;2022-12-24T09:06:20;7.50;;;5.30;;
76752;SDS011;65687;51.308;16.916;2022-12-24T09:11:22;5.30;;;3.20;;
76752;SDS011;65687;51.308;16.916;2022-12-24T09:16:24;8.10;;;5.90;;
76752;SDS011;65687;51.308;16.916;2022-12-24T09:21:26;8.50;;;6.00;;
76752;SDS011;65687;51.308;16.916;2022-12-24T09:26:28;6.90;;;5.10;;
76752;SDS011;65687;51.308;16.916;2022-12-24T09:31:33;7.70;;;4.90;;
76752;SDS011;65687;51.308;16.916;2022-12-24T09:36:34;6.80;;;4.10;;
76752;SDS011;65687;51.308;16.916;2022-12-24T09:46:44;7.30;;;5.60;;
76752;SDS011;65687;51.308;16.916;2022-12-24T09:51:58;23.10;;;17.60;;
76752;SDS011;65687;51.308;16.916;2022-12-24T09:57:07;8.90;;;7.10;;
76752;SDS011;65687;51.308;16.916;2022-12-24T10:02:17;10.10;;;8.00;;
76752;SDS011;65687;51.308;16.916;2022-12-24T10:12:43;18.80;;;10.70;;
76752;SDS011;65687;51.308;16.916;2022-12-24T10:29:00;4.60;;;3.50;;
76752;SDS011;65687;51.308;16.916;2022-12-24T10:34:14;5.30;;;3.50;;
76752;SDS011;65687;51.308;16.916;2022-12-24T10:39:23;5.80;;;3.50;;
76752;SDS011;65687;51.308;16.916;2022-12-24T10:44:28;7.90;;;4.50;;
76752;SDS011;65687;51.308;16.916;2022-12-24T10:49:42;13.70;;;7.60;;
76752;SDS011;65687;51.308;16.916;2022-12-24T11:00:05;7.80;;;4.90;;
76752;SDS011;65687;51.308;16.916;2022-12-24T11:05:29;7.70;;;5.20;;
76752;SDS011;65687;51.308;16.916;2022-12-24T11:10:32;7.10;;;4.30;;
76752;SDS011;65687;51.308;16.916;2022-12-24T11:15:37;7.00;;;4.80;;
76752;SDS011;65687;51.308;16.916;2022-12-24T11:20:39;6.40;;;4.40;;
76752;SDS011;65687;51.308;16.916;2022-12-24T11:25:45;6.30;;;5.00;;
76752;SDS011;65687;51.308;16.916;2022-12-24T11:36:00;6.20;;;4.80;;
76752;SDS011;65687;51.308;16.916;2022-12-24T11:41:14;6.30;;;4.20;;
76752;SDS011;65687;51.308;16.916;2022-12-24T11:51:45;8.70;;;5.80;;
76752;SDS011;65687;51.308;16.916;2022-12-24T11:57:01;7.20;;;4.80;;
76752;SDS011;65687;51.308;16.916;2022-12-24T12:07:37;5.80;;;4.50;;
76752;SDS011;65687;51.308;16.916;2022-12-24T12:12:41;8.60;;;5.60;;
76752;SDS011;65687;51.308;16.916;2022-12-24T12:17:50;8.40;;;4.80;;
76752;SDS011;65687;51.308;16.916;2022-12-24T12:28:19;11.10;;;8.30;;
76752;SDS011;65687;51.308;16.916;2022-12-24T12:33:27;15.50;;;12.00;;
76752;SDS011;65687;51.308;16.916;2022-12-24T12:38:35;5.50;;;3.60;;
76752;SDS011;65687;51.308;16.916;2022-12-24T12:49:07;8.20;;;4.70;;
76752;SDS011;65687;51.308;16.916;2022-12-24T12:54:36;8.20;;;4.80;;
76752;SDS011;65687;51.308;16.916;2022-12-24T12:59:45;17.90;;;10.20;;
76752;SDS011;65687;51.308;16.916;2022-12-24T13:21:19;10.90;;;5.40;;
76752;SDS011;65687;51.308;16.916;2022-12-24T13:26:24;13.10;;;6.30;;
76752;SDS011;65687;51.308;16.916;2022-12-24T13:31:25;15.10;;;5.50;;
76752;SDS011;65687;51.308;16.916;2022-12-24T13:42:02;12.20;;;5.00;;
76752;SDS011;65687;51.308;16.916;2022-12-24T13:47:17;12.40;;;5.20;;
76752;SDS011;65687;51.308;16.916;2022-12-24T13:52:25;15.00;;;6.30;;
76752;SDS011;65687;51.308;16.916;2022-12-24T14:02:44;13.50;;;5.70;;
76752;SDS011;65687;51.308;16.916;2022-12-24T14:08:04;9.60;;;4.50;;
76752;SDS011;65687;51.308;16.916;2022-12-24T14:18:40;11.00;;;4.80;;
76752;SDS011;65687;51.308;16.916;2022-12-24T14:23:55;9.80;;;6.10;;
76752;SDS011;65687;51.308;16.916;2022-12-24T14:29:05;10.00;;;5.70;;
76752;SDS011;65687;51.308;16.916;2022-12-24T14:34:15;12.10;;;6.60;;
76752;SDS011;65687;51.308;16.916;2022-12-24T14:39:24;15.50;;;7.10;;
76752;SDS011;65687;51.308;16.916;2022-12-24T14:49:52;13.00;;;5.90;;
76752;SDS011;65687;51.308;16.916;2022-12-24T14:54:58;19.70;;;6.40;;
76752;SDS011;65687;51.308;16.916;2022-12-24T15:00:00;12.90;;;6.10;;
76752;SDS011;65687;51.308;16.916;2022-12-24T15:05:19;10.90;;;6.30;;
76752;SDS011;65687;51.308;16.916;2022-12-24T15:10:33;20.30;;;8.60;;
76752;SDS011;65687;51.308;16.916;2022-12-24T15:15:37;23.00;;;10.90;;
76752;SDS011;65687;51.308;16.916;2022-12-24T15:20:45;11.40;;;5.90;;
76752;SDS011;65687;51.308;16.916;2022-12-24T15:25:49;15.10;;;7.00;;
76752;SDS011;65687;51.308;16.916;2022-12-24T15:31:03;13.70;;;6.60;;
76752;SDS011;65687;51.308;16.916;2022-12-24T15:36:11;18.80;;;8.40;;
76752;SDS011;65687;51.308;16.916;2022-12-24T15:46:25;20.20;;;9.20;;
76752;SDS011;65687;51.308;16.916;2022-12-24T15:51:32;17.90;;;9.20;;
76752;SDS011;65687;51.308;16.916;2022-12-24T15:56:39;19.80;;;10.70;;
76752;SDS011;65687;51.308;16.916;2022-12-24T16:01:46;61.20;;;25.40;;
76752;SDS011;65687;51.308;16.916;2022-12-24T16:06:53;49.50;;;20.90;;
76752;SDS011;65687;51.308;16.916;2022-12-24T16:11:55;16.80;;;9.30;;
76752;SDS011;65687;51.308;16.916;2022-12-24T16:16:57;17.40;;;7.00;;
76752;SDS011;65687;51.308;16.916;2022-12-24T16:22:00;17.50;;;9.20;;
76752;SDS011;65687;51.308;16.916;2022-12-24T16:27:22;17.50;;;6.90;;
76752;SDS011;65687;51.308;16.916;2022-12-24T16:37:28;15.80;;;7.20;;
76752;SDS011;65687;51.308;16.916;2022-12-24T16:42:30;10.30;;;7.00;;
76752;SDS011;65687;51.308;16.916;2022-12-24T16:47:51;23.40;;;12.90;;
76752;SDS011;65687;51.308;16.916;2022-12-24T16:52:52;25.50;;;13.10;;
76752;SDS011;65687;51.308;16.916;2022-12-24T16:57:54;24.50;;;12.30;;
76752;SDS011;65687;51.308;16.916;2022-12-24T17:02:56;27.90;;;17.20;;
76752;SDS011;65687;51.308;16.916;2022-12-24T17:07:59;35.70;;;19.70;;
76752;SDS011;65687;51.308;16.916;2022-12-24T17:13:01;31.70;;;19.70;;
76752;SDS011;65687;51.308;16.916;2022-12-24T17:18:03;21.60;;;11.30;;
76752;SDS011;65687;51.308;16.916;2022-12-24T17:23:05;9.80;;;5.10;;
76752;SDS011;65687;51.308;16.916;2022-12-24T17:28:07;10.90;;;3.80;;
76752;SDS011;65687;51.308;16.916;2022-12-24T17:33:09;8.30;;;3.20;;
76752;SDS011;65687;51.308;16.916;2022-12-24T17:38:11;11.30;;;6.60;;
76752;SDS011;65687;51.308;16.916;2022-12-24T17:43:13;12.50;;;6.80;;
76752;SDS011;65687;51.308;16.916;2022-12-24T17:48:15;9.80;;;5.30;;
76752;SDS011;65687;51.308;16.916;2022-12-24T17:53:17;11.30;;;7.50;;
76752;SDS011;65687;51.308;16.916;2022-12-24T17:58:19;16.70;;;9.90;;
76752;SDS011;65687;51.308;16.916;2022-12-24T18:03:20;8.70;;;5.10;;
76752;SDS011;65687;51.308;16.916;2022-12-24T18:08:23;12.20;;;5.80;;
76752;SDS011;65687;51.308;16.916;2022-12-24T18:13:25;12.50;;;6.30;;
76752;SDS011;65687;51.308;16.916;2022-12-24T18:18:26;7.50;;;3.90;;
76752;SDS011;65687;51.308;16.916;2022-12-24T18:23:28;6.40;;;4.10;;
76752;SDS011;65687;51.308;16.916;2022-12-24T18:28:30;13.60;;;6.50;;
76752;SDS011;65687;51.308;16.916;2022-12-24T18:33:33;11.30;;;7.00;;
76752;SDS011;65687;51.308;16.916;2022-12-24T18:43:38;21.90;;;9.30;;
76752;SDS011;65687;51.308;16.916;2022-12-24T18:48:40;22.80;;;10.20;;
76752;SDS011;65687;51.308;16.916;2022-12-24T18:53:42;23.30;;;11.00;;
76752;SDS011;65687;51.308;16.916;2022-12-24T18:58:44;27.50;;;13.60;;
76752;SDS011;65687;51.308;16.916;2022-12-24T19:03:46;55.90;;;27.80;;
76752;SDS011;65687;51.308;16.916;2022-12-24T19:08:49;69.70;;;39.40;;
76752;SDS011;65687;51.308;16.916;2022-12-24T19:13:52;21.90;;;12.20;;
76752;SDS011;65687;51.308;16.916;2022-12-24T19:18:54;21.70;;;13.70;;
76752;SDS011;65687;51.308;16.916;2022-12-24T19:23:56;19.30;;;10.30;;
76752;SDS011;65687;51.308;16.916;2022-12-24T19:28:58;15.20;;;9.40;;
76752;SDS011;65687;51.308;16.916;2022-12-24T19:34:00;16.60;;;9.80;;
76752;SDS011;65687;51.308;16.916;2022-12-24T19:39:02;13.40;;;7.50;;
76752;SDS011;65687;51.308;16.916;2022-12-24T19:44:04;12.00;;;7.90;;
76752;SDS011;65687;51.308;16.916;2022-12-24T19:49:06;14.60;;;8.80;;
76752;SDS011;65687;51.308;16.916;2022-12-24T19:54:11;36.60;;;19.40;;
76752;SDS011;65687;51.308;16.916;2022-12-24T19:59:13;13.30;;;7.10;;
76752;SDS011;65687;51.308;16.916;2022-12-24T20:04:15;18.10;;;8.60;;
76752;SDS011;65687;51.308;16.916;2022-12-24T20:09:19;43.10;;;26.10;;
76752;SDS011;65687;51.308;16.916;2022-12-24T20:14:21;69.70;;;38.30;;
76752;SDS011;65687;51.308;16.916;2022-12-24T20:19:23;25.40;;;13.60;;
76752;SDS011;65687;51.308;16.916;2022-12-24T20:24:25;17.60;;;8.80;;
76752;SDS011;65687;51.308;16.916;2022-12-24T20:29:28;20.00;;;11.60;;
76752;SDS011;65687;51.308;16.916;2022-12-24T20:34:30;34.90;;;17.90;;
76752;SDS011;65687;51.308;16.916;2022-12-24T20:39:32;29.50;;;16.40;;
76752;SDS011;65687;51.308;16.916;2022-12-24T20:44:33;30.00;;;17.70;;
76752;SDS011;65687;51.308;16.916;2022-12-24T20:49:35;28.10;;;16.70;;
76752;SDS011;65687;51.308;16.916;2022-12-24T20:54:37;26.30;;;14.30;;
76752;SDS011;65687;51.308;16.916;2022-12-24T20:59:39;23.80;;;13.60;;
76752;SDS011;65687;51.308;16.916;2022-12-24T21:04:41;27.20;;;17.40;;
76752;SDS011;65687;51.308;16.916;2022-12-24T21:09:43;20.10;;;11.80;;
76752;SDS011;65687;51.308;16.916;2022-12-24T21:14:45;13.70;;;9.90;;
76752;SDS011;65687;51.308;16.916;2022-12-24T21:19:46;12.50;;;6.60;;
76752;SDS011;65687;51.308;16.916;2022-12-24T21:24:48;14.30;;;8.50;;
76752;SDS011;65687;51.308;16.916;2022-12-24T21:29:50;14.50;;;8.40;;
76752;SDS011;65687;51.308;16.916;2022-12-24T21:34:52;17.50;;;11.20;;
76752;SDS011;65687;51.308;16.916;2022-12-24T21:39:54;13.60;;;7.30;;
76752;SDS011;65687;51.308;16.916;2022-12-24T21:44:56;15.20;;;10.10;;
76752;SDS011;65687;51.308;16.916;2022-12-24T21:49:58;12.40;;;8.10;;
76752;SDS011;65687;51.308;16.916;2022-12-24T21:55:18;11.30;;;5.70;;
76752;SDS011;65687;51.308;16.916;2022-12-24T22:00:20;15.10;;;7.00;;
76752;SDS011;65687;51.308;16.916;2022-12-24T22:05:22;14.60;;;7.40;;
76752;SDS011;65687;51.308;16.916;2022-12-24T22:10:26;14.50;;;9.90;;
76752;SDS011;65687;51.308;16.916;2022-12-24T22:15:47;16.70;;;8.60;;
76752;SDS011;65687;51.308;16.916;2022-12-24T22:20:51;14.60;;;8.30;;
76752;SDS011;65687;51.308;16.916;2022-12-24T22:25:53;26.00;;;16.10;;
76752;SDS011;65687;51.308;16.916;2022-12-24T22:30:55;25.10;;;16.90;;
76752;SDS011;65687;51.308;16.916;2022-12-24T22:35:57;12.50;;;7.60;;
76752;SDS011;65687;51.308;16.916;2022-12-24T22:40:59;13.50;;;7.90;;
76752;SDS011;65687;51.308;16.916;2022-12-24T22:46:04;13.80;;;9.20;;
76752;SDS011;65687;51.308;16.916;2022-12-24T22:51:09;15.30;;;8.30;;
76752;SDS011;65687;51.308;16.916;2022-12-24T22:56:19;15.30;;;7.20;;
76752;SDS011;65687;51.308;16.916;2022-12-24T23:01:32;12.20;;;6.30;;
76752;SDS011;65687;51.308;16.916;2022-12-24T23:06:37;11.90;;;6.70;;
76752;SDS011;65687;51.308;16.916;2022-12-24T23:11:40;9.50;;;5.50;;
76752;SDS011;65687;51.308;16.916;2022-12-24T23:16:42;9.10;;;4.50;;
76752;SDS011;65687;51.308;16.916;2022-12-24T23:21:44;11.00;;;4.30;;
76752;SDS011;65687;51.308;16.916;2022-12-24T23:26:45;9.90;;;4.80;;
76752;SDS011;65687;51.308;16.916;2022-12-24T23:31:47;8.30;;;4.30;;
76752;SDS011;65687;51.308;16.916;2022-12-24T23:36:49;7.80;;;3.90;;
76752;SDS011;65687;51.308;16.916;2022-12-24T23:41:51;9.60;;;4.80;;
76752;SDS011;65687;51.308;16.916;2022-12-24T23:46:53;7.30;;;3.80;;
76752;SDS011;65687;51.308;16.916;2022-12-24T23:51:55;8.70;;;4.40;;
76752;SDS011;65687;51.308;16.916;2022-12-24T23:56:57;10.50;;;4.60;;
